IAE9951 BIKF-EGLL
Flight info
| Callsign | IAE9951 |
|---|---|
| Flight time | N/A |
| Altitude | 39000 |
| Route | M083F390 DCT OSKUM DCT RATSU/N0487F390 DCT BARKU DCT ORSUM DCT GOW DCT ELBUS DCT NAVSO DCT VAMEB DCT NUGRA DCT |
| Aircraft | B772/H-SDE2E3FGHIJ5LORVWXY/LB1D1 |
Departure
| Time | 2026-05-06 12:50 |
|---|---|
| Airport | Keflavik International Airport (BIKF) |
Arrival
| Time | N/A |
|---|---|
| Airport | London Heathrow Airport (EGLL) |
| Time | Latitude | Longitude | Altitude | Speed | Heading |
|---|---|---|---|---|---|
| 2026-05-06 12:21 | 63.99388 | -22.61263 | 150 ft | 0 kts | 89° |
| 2026-05-06 12:35 | 63.99388 | -22.61267 | 150 ft | 1 kts | 89° |
| 2026-05-06 12:35 | 63.99388 | -22.61301 | 150 ft | 2 kts | 89° |
| 2026-05-06 12:35 | 63.99388 | -22.61335 | 150 ft | 2 kts | 94° |
| 2026-05-06 12:36 | 63.99391 | -22.61368 | 150 ft | 2 kts | 115° |
| 2026-05-06 12:36 | 63.99398 | -22.61397 | 150 ft | 2 kts | 130° |
| 2026-05-06 12:36 | 63.99409 | -22.61420 | 150 ft | 2 kts | 147° |
| 2026-05-06 12:36 | 63.99423 | -22.61435 | 150 ft | 2 kts | 163° |
| 2026-05-06 12:37 | 63.99436 | -22.61441 | 150 ft | 1 kts | 179° |
| 2026-05-06 12:37 | 63.99441 | -22.61441 | 150 ft | 0 kts | 181° |
| 2026-05-06 12:42 | 63.99440 | -22.61441 | 150 ft | 1 kts | 181° |
| 2026-05-06 12:42 | 63.99416 | -22.61442 | 150 ft | 5 kts | 179° |
| 2026-05-06 12:42 | 63.99361 | -22.61441 | 150 ft | 7 kts | 179° |
| 2026-05-06 12:42 | 63.99295 | -22.61439 | 150 ft | 11 kts | 179° |
| 2026-05-06 12:43 | 63.99214 | -22.61437 | 150 ft | 9 kts | 177° |
| 2026-05-06 12:43 | 63.99176 | -22.61345 | 150 ft | 9 kts | 97° |
| 2026-05-06 12:43 | 63.99171 | -22.61194 | 153 ft | 8 kts | 90° |
| 2026-05-06 12:43 | 63.99172 | -22.61048 | 153 ft | 9 kts | 90° |
| 2026-05-06 12:44 | 63.99131 | -22.60950 | 153 ft | 10 kts | 170° |
| 2026-05-06 12:44 | 63.99045 | -22.60945 | 153 ft | 14 kts | 179° |
| 2026-05-06 12:44 | 63.98937 | -22.60944 | 155 ft | 16 kts | 179° |
| 2026-05-06 12:44 | 63.98820 | -22.60945 | 157 ft | 17 kts | 180° |
| 2026-05-06 12:45 | 63.98694 | -22.60947 | 158 ft | 19 kts | 180° |
| 2026-05-06 12:45 | 63.98600 | -22.60946 | 158 ft | 21 kts | 179° |
| 2026-05-06 12:45 | 63.98233 | -22.60945 | 161 ft | 23 kts | 180° |
| 2026-05-06 12:46 | 63.98063 | -22.60944 | 161 ft | 23 kts | 179° |
| 2026-05-06 12:46 | 63.97893 | -22.60944 | 159 ft | 25 kts | 179° |
| 2026-05-06 12:46 | 63.97712 | -22.60946 | 158 ft | 26 kts | 180° |
| 2026-05-06 12:46 | 63.97545 | -22.60947 | 155 ft | 23 kts | 179° |
| 2026-05-06 12:47 | 63.97431 | -22.60947 | 153 ft | 25 kts | 180° |
| 2026-05-06 12:47 | 63.97173 | -22.60948 | 148 ft | 30 kts | 181° |
| 2026-05-06 12:47 | 63.96967 | -22.60948 | 142 ft | 29 kts | 179° |
| 2026-05-06 12:47 | 63.96782 | -22.60949 | 135 ft | 25 kts | 179° |
| 2026-05-06 12:48 | 63.96607 | -22.60951 | 128 ft | 16 kts | 180° |
| 2026-05-06 12:48 | 63.96500 | -22.60946 | 124 ft | 12 kts | 165° |
| 2026-05-06 12:48 | 63.96462 | -22.60817 | 125 ft | 10 kts | 91° |
| 2026-05-06 12:48 | 63.96465 | -22.60643 | 125 ft | 10 kts | 83° |
| 2026-05-06 12:49 | 63.96505 | -22.60557 | 129 ft | 8 kts | 7° |
| 2026-05-06 12:49 | 63.96583 | -22.60554 | 131 ft | 21 kts | 359° |
| 2026-05-06 12:49 | 63.96924 | -22.60542 | 144 ft | 78 kts | 358° |
| 2026-05-06 12:49 | 63.97648 | -22.60555 | 165 ft | 128 kts | 0° |
| 2026-05-06 12:50 | 63.98627 | -22.60536 | 392 ft | 147 kts | 3° |
| 2026-05-06 12:50 | 63.99656 | -22.60494 | 941 ft | 151 kts | 4° |
| 2026-05-06 12:50 | 64.00690 | -22.60478 | 1693 ft | 150 kts | 2° |
| 2026-05-06 12:50 | 64.01691 | -22.60559 | 2279 ft | 146 kts | 3° |
| 2026-05-06 12:51 | 64.02744 | -22.60521 | 2677 ft | 154 kts | 5° |
| 2026-05-06 12:51 | 64.03798 | -22.60478 | 3182 ft | 154 kts | 3° |
| 2026-05-06 12:51 | 64.04854 | -22.60408 | 3657 ft | 154 kts | 12° |
| 2026-05-06 12:51 | 64.05887 | -22.59536 | 3963 ft | 164 kts | 32° |
| 2026-05-06 12:52 | 64.06696 | -22.57647 | 4304 ft | 174 kts | 57° |
| 2026-05-06 12:52 | 64.07046 | -22.54917 | 4595 ft | 190 kts | 82° |
| 2026-05-06 12:52 | 64.06903 | -22.51744 | 4823 ft | 213 kts | 100° |
| 2026-05-06 12:52 | 64.06506 | -22.48472 | 5316 ft | 219 kts | 99° |
| 2026-05-06 12:53 | 64.06316 | -22.46159 | 5566 ft | 226 kts | 95° |
| 2026-05-06 12:53 | 64.05995 | -22.41256 | 5924 ft | 249 kts | 104° |
| 2026-05-06 12:53 | 64.05264 | -22.37540 | 6304 ft | 262 kts | 113° |
| 2026-05-06 12:53 | 64.04398 | -22.33900 | 6904 ft | 265 kts | 116° |
| 2026-05-06 12:54 | 64.03805 | -22.31497 | 7297 ft | 267 kts | 116° |
| 2026-05-06 12:54 | 64.02574 | -22.26553 | 8089 ft | 270 kts | 116° |
| 2026-05-06 12:54 | 64.01659 | -22.22886 | 8661 ft | 272 kts | 116° |
| 2026-05-06 12:54 | 64.00721 | -22.19128 | 9249 ft | 274 kts | 115° |
| 2026-05-06 12:55 | 63.99779 | -22.15360 | 9819 ft | 276 kts | 115° |
| 2026-05-06 12:55 | 63.98840 | -22.11612 | 10374 ft | 278 kts | 115° |
| 2026-05-06 12:55 | 63.97864 | -22.07716 | 10604 ft | 292 kts | 115° |
| 2026-05-06 12:55 | 63.96831 | -22.03598 | 10756 ft | 308 kts | 116° |
| 2026-05-06 12:56 | 63.95740 | -21.99264 | 10910 ft | 323 kts | 116° |
| 2026-05-06 12:56 | 63.94610 | -21.94787 | 11047 ft | 337 kts | 116° |
| 2026-05-06 12:56 | 63.93409 | -21.90039 | 11180 ft | 351 kts | 116° |
| 2026-05-06 12:56 | 63.92193 | -21.85244 | 11535 ft | 358 kts | 116° |
| 2026-05-06 12:57 | 63.90940 | -21.80317 | 12046 ft | 361 kts | 116° |
| 2026-05-06 12:57 | 63.89685 | -21.75390 | 12600 ft | 363 kts | 116° |
| 2026-05-06 12:57 | 63.88427 | -21.70464 | 13180 ft | 366 kts | 116° |
| 2026-05-06 12:57 | 63.87146 | -21.65457 | 13794 ft | 369 kts | 116° |
| 2026-05-06 12:58 | 63.85863 | -21.60455 | 14450 ft | 371 kts | 116° |
| 2026-05-06 12:58 | 63.84574 | -21.55437 | 15131 ft | 374 kts | 116° |
| 2026-05-06 12:58 | 63.83256 | -21.50318 | 15786 ft | 378 kts | 116° |
| 2026-05-06 12:58 | 63.81937 | -21.45208 | 16443 ft | 382 kts | 116° |
| 2026-05-06 12:59 | 63.80593 | -21.40013 | 17092 ft | 386 kts | 116° |
| 2026-05-06 12:59 | 63.79234 | -21.34776 | 17760 ft | 389 kts | 117° |
| 2026-05-06 12:59 | 63.77871 | -21.29523 | 18398 ft | 392 kts | 116° |
| 2026-05-06 12:59 | 63.76709 | -21.23953 | 18982 ft | 392 kts | 107° |
| 2026-05-06 13:00 | 63.75963 | -21.18042 | 19566 ft | 393 kts | 98° |
| 2026-05-06 13:00 | 63.75554 | -21.12044 | 20177 ft | 394 kts | 95° |
| 2026-05-06 13:00 | 63.75180 | -21.05900 | 20825 ft | 396 kts | 95° |
| 2026-05-06 13:00 | 63.74802 | -20.99746 | 21400 ft | 399 kts | 95° |
| 2026-05-06 13:01 | 63.74416 | -20.93547 | 21932 ft | 403 kts | 95° |
| 2026-05-06 13:01 | 63.74025 | -20.87335 | 22496 ft | 406 kts | 95° |
| 2026-05-06 13:01 | 63.73623 | -20.81013 | 23024 ft | 410 kts | 95° |
| 2026-05-06 13:01 | 63.73217 | -20.74683 | 23557 ft | 413 kts | 95° |
| 2026-05-06 13:02 | 63.72802 | -20.68260 | 24101 ft | 416 kts | 95° |
| 2026-05-06 13:02 | 63.72384 | -20.61839 | 24615 ft | 418 kts | 95° |
| 2026-05-06 13:02 | 63.71954 | -20.55308 | 25120 ft | 421 kts | 95° |
| 2026-05-06 13:02 | 63.71499 | -20.48765 | 25552 ft | 426 kts | 98° |
| 2026-05-06 13:03 | 63.70707 | -20.42263 | 25931 ft | 434 kts | 106° |
| 2026-05-06 13:03 | 63.69534 | -20.35968 | 26338 ft | 440 kts | 110° |
| 2026-05-06 13:03 | 63.68695 | -20.31814 | 26617 ft | 443 kts | 111° |
| 2026-05-06 13:03 | 63.67399 | -20.25446 | 27039 ft | 446 kts | 111° |
| 2026-05-06 13:04 | 63.65654 | -20.16915 | 27580 ft | 451 kts | 112° |
| 2026-05-06 13:04 | 63.64333 | -20.10477 | 27985 ft | 455 kts | 112° |
| 2026-05-06 13:04 | 63.63007 | -20.04032 | 28347 ft | 458 kts | 112° |
| 2026-05-06 13:04 | 63.61666 | -19.97543 | 28671 ft | 462 kts | 112° |
| 2026-05-06 13:05 | 63.60309 | -19.90990 | 28931 ft | 466 kts | 112° |
| 2026-05-06 13:05 | 63.58935 | -19.84376 | 29268 ft | 469 kts | 112° |
| 2026-05-06 13:05 | 63.57547 | -19.77721 | 29552 ft | 473 kts | 112° |
| 2026-05-06 13:05 | 63.56145 | -19.71017 | 29889 ft | 476 kts | 112° |
| 2026-05-06 13:06 | 63.54750 | -19.64367 | 30270 ft | 477 kts | 112° |
| 2026-05-06 13:06 | 63.53812 | -19.59911 | 30537 ft | 476 kts | 112° |
| 2026-05-06 13:06 | 63.51930 | -19.50998 | 31016 ft | 477 kts | 112° |
| 2026-05-06 13:06 | 63.50510 | -19.44291 | 31272 ft | 479 kts | 112° |
| 2026-05-06 13:07 | 63.49076 | -19.37543 | 31497 ft | 482 kts | 113° |
| 2026-05-06 13:07 | 63.48110 | -19.33011 | 31612 ft | 484 kts | 114° |
| 2026-05-06 13:07 | 63.46188 | -19.24019 | 31936 ft | 487 kts | 114° |
| 2026-05-06 13:07 | 63.44725 | -19.17203 | 32171 ft | 488 kts | 114° |
| 2026-05-06 13:08 | 63.43263 | -19.10408 | 32430 ft | 490 kts | 114° |
| 2026-05-06 13:08 | 63.41775 | -19.03523 | 32677 ft | 492 kts | 114° |
| 2026-05-06 13:08 | 63.40303 | -18.96726 | 32951 ft | 494 kts | 114° |
| 2026-05-06 13:08 | 63.38811 | -18.89865 | 33215 ft | 495 kts | 114° |
| 2026-05-06 13:09 | 63.37310 | -18.82982 | 33480 ft | 497 kts | 114° |
| 2026-05-06 13:09 | 63.36288 | -18.78309 | 33718 ft | 497 kts | 114° |
| 2026-05-06 13:09 | 63.34273 | -18.69126 | 34235 ft | 497 kts | 114° |
| 2026-05-06 13:09 | 63.32761 | -18.62258 | 34665 ft | 496 kts | 114° |
| 2026-05-06 13:10 | 63.31770 | -18.57772 | 34939 ft | 495 kts | 115° |
| 2026-05-06 13:10 | 63.29748 | -18.48646 | 35451 ft | 495 kts | 114° |
| 2026-05-06 13:10 | 63.28234 | -18.41835 | 35786 ft | 495 kts | 115° |
| 2026-05-06 13:10 | 63.26706 | -18.34986 | 36085 ft | 496 kts | 114° |
| 2026-05-06 13:11 | 63.25172 | -18.28132 | 36353 ft | 497 kts | 115° |
| 2026-05-06 13:11 | 63.23650 | -18.21352 | 36609 ft | 497 kts | 115° |
| 2026-05-06 13:11 | 63.22119 | -18.14555 | 36873 ft | 498 kts | 115° |
| 2026-05-06 13:11 | 63.20560 | -18.07654 | 37135 ft | 498 kts | 115° |
| 2026-05-06 13:12 | 63.19023 | -18.00871 | 37380 ft | 498 kts | 115° |
| 2026-05-06 13:12 | 63.17484 | -17.94105 | 37627 ft | 498 kts | 115° |
| 2026-05-06 13:12 | 63.15923 | -17.87260 | 37880 ft | 497 kts | 116° |
| 2026-05-06 13:12 | 63.14368 | -17.80466 | 38128 ft | 498 kts | 115° |
| 2026-05-06 13:13 | 63.12816 | -17.73702 | 38317 ft | 499 kts | 115° |
| 2026-05-06 13:13 | 63.11247 | -17.66888 | 38495 ft | 500 kts | 115° |
| 2026-05-06 13:13 | 63.09669 | -17.60058 | 38683 ft | 500 kts | 115° |
| 2026-05-06 13:13 | 63.08095 | -17.53265 | 38918 ft | 500 kts | 115° |
| 2026-05-06 13:14 | 63.06531 | -17.46539 | 39125 ft | 499 kts | 115° |
| 2026-05-06 13:14 | 63.03362 | -17.32969 | 39149 ft | 500 kts | 116° |
| 2026-05-06 13:15 | 63.00163 | -17.19362 | 39136 ft | 499 kts | 116° |
| 2026-05-06 13:15 | 62.96979 | -17.05898 | 39137 ft | 499 kts | 116° |
| 2026-05-06 13:16 | 62.93772 | -16.92418 | 39128 ft | 500 kts | 116° |
| 2026-05-06 13:16 | 62.90537 | -16.78904 | 39135 ft | 500 kts | 116° |
| 2026-05-06 13:17 | 62.87319 | -16.65547 | 39126 ft | 499 kts | 116° |
| 2026-05-06 13:17 | 62.84074 | -16.52161 | 39115 ft | 500 kts | 117° |
| 2026-05-06 13:18 | 62.80820 | -16.38819 | 39110 ft | 501 kts | 117° |
| 2026-05-06 13:18 | 62.77528 | -16.25403 | 39105 ft | 501 kts | 117° |
| 2026-05-06 13:19 | 62.74236 | -16.12066 | 39096 ft | 501 kts | 117° |
| 2026-05-06 13:19 | 62.71476 | -16.00952 | 39108 ft | 501 kts | 118° |
| 2026-05-06 13:20 | 62.67611 | -15.85477 | 39093 ft | 501 kts | 118° |
| 2026-05-06 13:20 | 62.64822 | -15.74373 | 39086 ft | 501 kts | 118° |
| 2026-05-06 13:21 | 62.60947 | -15.59045 | 39079 ft | 502 kts | 118° |
| 2026-05-06 13:21 | 62.57571 | -15.45777 | 39072 ft | 501 kts | 118° |
| 2026-05-06 13:22 | 62.54204 | -15.32621 | 39083 ft | 502 kts | 119° |
| 2026-05-06 13:22 | 62.50833 | -15.19526 | 39064 ft | 502 kts | 118° |
| 2026-05-06 13:23 | 62.47421 | -15.06351 | 39063 ft | 503 kts | 119° |
| 2026-05-06 13:23 | 62.44000 | -14.93218 | 39074 ft | 502 kts | 119° |
| 2026-05-06 13:24 | 62.40569 | -14.80126 | 39058 ft | 502 kts | 119° |
| 2026-05-06 13:24 | 62.37155 | -14.67174 | 39043 ft | 502 kts | 119° |
| 2026-05-06 13:25 | 62.33711 | -14.54185 | 39054 ft | 502 kts | 119° |